Current Weather

Sadiq Abubakar Iii Intl

Sadiq Abubakar Iii Intl, Nigeria (DNSO)

Report from: Sunday, February 5, 2023 3:00 AM +10
Current time: Monday, February 6, 2023 4:20 PM +10

Nearby weather
Weather history
Weather forecast

Present weatherHaze
Temperature36.0°C (96.8°F)
Heat index34.3°C (93.7°F)
Dew point10.0°C (50.0°F)
Winds 5 kts (2.6 m/s, 5.8 mph) North-Northeast (30°)
Visibility0.9 mi. (1.4 km)
Altimeter29.85 in.Hg (1011 mB)
Relative humidity21 %
Density altitude2,629 ft. (801 m)
Flight conditions Low Instrument Meteorological Conditions
Raw dataDNSO 041700Z 03005KT 1400 HZ NSC 36/10 Q1011
An error has occurred. This application may no longer respond until reloaded. Reload 🗙